createdAt,value
2023-03-01T00:04:28.750Z,-2.76
2023-03-01T00:09:30.455Z,-2.83
2023-03-01T00:14:32.012Z,-2.73
2023-03-01T00:19:33.840Z,-2.65
2023-03-01T00:24:35.413Z,-2.44
2023-03-01T00:29:36.965Z,-2.27
2023-03-01T00:34:38.713Z,-2.28
2023-03-01T00:39:40.321Z,-2.30
2023-03-01T00:44:41.883Z,-2.31
2023-03-01T00:49:43.550Z,-2.36
2023-03-01T00:54:45.147Z,-2.46
2023-03-01T00:59:46.705Z,-2.42
2023-03-01T01:04:50.831Z,-2.51
2023-03-01T01:09:54.867Z,-2.58
2023-03-01T01:14:56.491Z,-2.66
2023-03-01T01:19:58.221Z,-2.67
2023-03-01T01:24:59.840Z,-2.63
2023-03-01T01:30:01.419Z,-2.64
2023-03-01T01:35:03.056Z,-2.66
2023-03-01T01:40:05.229Z,-2.62
2023-03-01T01:45:36.968Z,-2.58
2023-03-01T01:50:41.578Z,-2.57
2023-03-01T01:55:54.628Z,-2.62
2023-03-01T02:00:56.449Z,-2.73
2023-03-01T02:06:04.730Z,-2.84
2023-03-01T02:11:07.063Z,-2.84
2023-03-01T02:16:15.671Z,-2.85
2023-03-01T02:21:47.604Z,-2.84
2023-03-01T02:26:59.540Z,-2.86
2023-03-01T02:32:04.946Z,-2.97
2023-03-01T02:37:15.835Z,-3.11
2023-03-01T02:42:27.358Z,-3.22
2023-03-01T02:47:29.143Z,-3.27
2023-03-01T02:53:12.167Z,-3.24
2023-03-01T02:58:13.826Z,-3.23
2023-03-01T03:03:17.839Z,-3.20
2023-03-01T03:08:25.050Z,-3.26
2023-03-01T03:13:29.464Z,-3.35
2023-03-01T03:18:31.293Z,-3.39
2023-03-01T03:23:32.983Z,-3.35
2023-03-01T03:28:35.910Z,-3.40
2023-03-01T03:33:37.915Z,-3.34
2023-03-01T03:38:40.943Z,-3.37
2023-03-01T03:43:44.692Z,-3.39
2023-03-01T03:48:47.030Z,-3.42
2023-03-01T03:53:51.428Z,-3.36
2023-03-01T03:58:53.813Z,-3.42
2023-03-01T04:03:55.642Z,-3.58
2023-03-01T04:08:59.219Z,-3.69
2023-03-01T04:14:01.169Z,-3.69
2023-03-01T04:19:02.932Z,-3.60
2023-03-01T04:24:05.184Z,-3.56
2023-03-01T04:29:06.743Z,-3.51
2023-03-01T04:34:08.504Z,-3.51
2023-03-01T04:39:13.450Z,-3.55
2023-03-01T04:44:15.154Z,-3.58
2023-03-01T04:49:17.063Z,-3.60
2023-03-01T04:54:18.659Z,-3.65
2023-03-01T04:59:23.412Z,-3.61
2023-03-01T05:04:26.013Z,-3.59
2023-03-01T05:09:27.592Z,-3.61
2023-03-01T05:14:29.910Z,-3.58
2023-03-01T05:19:32.519Z,-3.62
2023-03-01T05:24:35.936Z,-3.59
2023-03-01T05:29:37.535Z,-3.58
2023-03-01T05:34:40.003Z,-3.52
2023-03-01T05:39:42.860Z,-3.49
2023-03-01T05:44:44.507Z,-3.56
2023-03-01T05:49:46.105Z,-3.59
2023-03-01T05:54:47.667Z,-3.54
2023-03-01T05:59:49.262Z,-3.49
2023-03-01T06:04:50.885Z,-3.52
2023-03-01T06:09:52.524Z,-3.58
2023-03-01T06:14:54.071Z,-3.65
2023-03-01T06:19:55.643Z,-3.70
2023-03-01T06:30:15.066Z,-3.72
2023-03-01T06:35:20.793Z,-3.73
2023-03-01T06:40:22.885Z,-3.70
2023-03-01T06:45:25.413Z,-3.61
2023-03-01T06:50:26.941Z,-3.56
2023-03-01T06:55:28.854Z,-3.49
2023-03-01T07:00:31.139Z,-3.47
2023-03-01T07:05:34.479Z,-3.40
2023-03-01T07:10:36.067Z,-3.22
2023-03-01T07:15:37.625Z,-3.04
2023-03-01T07:20:39.132Z,-2.87
2023-03-01T07:25:40.700Z,-2.72
2023-03-01T07:30:42.255Z,-2.60
2023-03-01T07:35:43.996Z,-2.44
2023-03-01T07:40:47.944Z,-2.25
2023-03-01T07:45:49.551Z,-2.09
2023-03-01T07:50:51.056Z,-1.90
2023-03-01T07:56:10.873Z,-1.73
2023-03-01T08:01:16.144Z,-1.62
2023-03-01T08:06:18.327Z,-1.50
2023-03-01T08:11:19.966Z,-1.34
2023-03-01T08:16:26.910Z,-1.22
2023-03-01T08:21:28.575Z,-1.03
2023-03-01T08:26:30.911Z,-0.85
2023-03-01T08:31:38.627Z,-0.70
2023-03-01T08:36:43.041Z,-0.55
2023-03-01T08:41:47.039Z,-0.38
2023-03-01T08:46:51.025Z,-0.20
2023-03-01T08:51:52.582Z,-0.11
2023-03-01T08:56:54.131Z,0.05
2023-03-01T09:01:55.734Z,0.28
2023-03-01T09:06:57.302Z,0.28
2023-03-01T09:11:58.932Z,0.44
2023-03-01T09:17:03.928Z,0.62
2023-03-01T09:22:05.948Z,0.76
2023-03-01T09:27:09.808Z,0.84
2023-03-01T09:32:11.886Z,0.95
2023-03-01T09:37:13.466Z,1.16
2023-03-01T09:42:15.137Z,1.33
2023-03-01T09:47:22.412Z,1.35
2023-03-01T09:52:38.744Z,1.56
2023-03-01T09:58:22.131Z,1.61
2023-03-01T10:03:35.737Z,1.69
2023-03-01T10:08:49.533Z,1.92
2023-03-01T10:14:15.774Z,1.97
2023-03-01T10:19:33.191Z,1.96
2023-03-01T10:24:37.149Z,2.17
2023-03-01T10:29:44.436Z,2.31
2023-03-01T10:34:45.990Z,2.48
2023-03-01T10:40:09.171Z,2.58
2023-03-01T10:45:39.782Z,2.72
2023-03-01T10:51:00.899Z,2.90
2023-03-01T10:56:05.231Z,2.98
2023-03-01T11:01:25.864Z,3.18
2023-03-01T11:06:27.486Z,3.26
2023-03-01T11:11:34.501Z,3.33
2023-03-01T11:16:39.218Z,3.41
2023-03-01T11:21:56.125Z,3.44
2023-03-01T11:27:00.827Z,3.59
2023-03-01T11:32:08.182Z,3.73
2023-03-01T11:37:27.579Z,3.81
2023-03-01T11:42:40.319Z,3.78
2023-03-01T11:47:52.294Z,3.77
2023-03-01T11:53:01.900Z,3.86
2023-03-01T11:58:13.014Z,4.10
2023-03-01T12:03:30.467Z,4.24
2023-03-01T12:08:36.758Z,4.44
2023-03-01T12:13:57.237Z,4.53
2023-03-01T12:19:01.508Z,4.61
2023-03-01T12:24:18.201Z,4.62
2023-03-01T12:29:27.195Z,4.72
2023-03-01T12:34:43.215Z,4.70
2023-03-01T12:39:53.730Z,4.82
2023-03-01T12:45:13.484Z,4.85
2023-03-01T12:50:22.812Z,4.89
2023-03-01T12:55:34.705Z,5.03
2023-03-01T13:00:52.002Z,5.10
2023-03-01T13:06:24.208Z,5.05
2023-03-01T13:11:27.412Z,5.10
2023-03-01T13:16:28.964Z,5.18
2023-03-01T13:21:32.288Z,5.28
2023-03-01T13:27:23.847Z,5.28
2023-03-01T13:32:48.509Z,5.19
2023-03-01T13:37:50.173Z,5.28
2023-03-01T13:43:04.632Z,5.30
2023-03-01T13:48:16.427Z,5.40
2023-03-01T13:53:24.482Z,5.49
2023-03-01T13:58:29.501Z,5.35
2023-03-01T14:03:33.404Z,5.49
2023-03-01T14:08:41.388Z,5.60
2023-03-01T14:13:58.209Z,5.62
2023-03-01T14:19:35.301Z,5.70
2023-03-01T14:24:45.688Z,5.71
2023-03-01T14:30:02.218Z,5.77
2023-03-01T14:35:04.794Z,5.81
2023-03-01T14:40:23.572Z,5.80
2023-03-01T14:45:27.202Z,5.75
2023-03-01T14:50:31.667Z,5.72
2023-03-01T14:55:45.700Z,5.83
2023-03-01T15:00:58.926Z,5.80
2023-03-01T15:06:06.292Z,5.79
2023-03-01T15:11:14.241Z,5.82
2023-03-01T15:16:19.561Z,5.82
2023-03-01T15:21:28.060Z,5.85
2023-03-01T15:26:42.702Z,5.82
2023-03-01T15:31:44.554Z,5.81
2023-03-01T15:36:50.665Z,5.81
2023-03-01T15:41:52.305Z,5.81
2023-03-01T15:46:54.151Z,5.82
2023-03-01T15:51:56.250Z,5.79
2023-03-01T15:56:58.004Z,5.74
2023-03-01T16:01:59.509Z,5.69
2023-03-01T16:07:02.049Z,5.68
2023-03-01T16:12:03.728Z,5.61
2023-03-01T16:17:06.429Z,5.50
2023-03-01T16:22:11.129Z,5.43
2023-03-01T16:27:12.722Z,5.34
2023-03-01T16:32:14.524Z,5.31
2023-03-01T16:37:17.098Z,5.24
2023-03-01T16:42:21.300Z,5.17
2023-03-01T16:47:23.488Z,5.05
2023-03-01T16:52:25.078Z,4.93
2023-03-01T16:57:26.737Z,4.91
2023-03-01T17:02:28.675Z,4.86
2023-03-01T17:07:34.310Z,4.74
2023-03-01T17:12:36.635Z,4.46
2023-03-01T17:17:38.162Z,4.28
2023-03-01T17:22:39.712Z,4.17
2023-03-01T17:27:41.478Z,3.96
2023-03-01T17:32:43.456Z,3.85
2023-03-01T17:37:46.534Z,3.64
2023-03-01T17:42:48.204Z,3.43
2023-03-01T17:47:49.738Z,3.31
2023-03-01T17:52:51.647Z,3.18
2023-03-01T17:57:53.169Z,3.16
2023-03-01T18:02:54.923Z,3.06
2023-03-01T18:07:56.418Z,2.88
2023-03-01T18:12:59.627Z,2.73
2023-03-01T18:18:01.192Z,2.58
2023-03-01T18:23:02.776Z,2.54
2023-03-01T18:28:04.481Z,2.51
2023-03-01T18:33:06.049Z,2.41
2023-03-01T18:38:07.586Z,2.33
2023-03-01T18:43:11.462Z,2.29
2023-03-01T18:48:14.336Z,2.14
2023-03-01T18:53:15.935Z,2.00
2023-03-01T18:58:17.456Z,1.96
2023-03-01T19:03:19.023Z,1.87
2023-03-01T19:08:20.893Z,1.68
2023-03-01T19:13:22.504Z,1.50
2023-03-01T19:18:24.009Z,1.27
2023-03-01T19:23:25.601Z,1.18
2023-03-01T19:28:27.226Z,1.14
2023-03-01T19:33:30.336Z,0.96
2023-03-01T19:38:31.858Z,0.81
2023-03-01T19:43:33.838Z,0.72
2023-03-01T19:48:35.619Z,0.64
2023-03-01T19:53:39.092Z,0.53
2023-03-01T19:58:40.686Z,0.38
2023-03-01T20:03:42.445Z,0.26
2023-03-01T20:08:44.667Z,0.10
2023-03-01T20:13:48.494Z,-0.03
2023-03-01T20:18:50.193Z,-0.10
2023-03-01T20:23:52.197Z,-0.23
2023-03-01T20:28:55.536Z,-0.37
2023-03-01T20:33:58.044Z,-0.49
2023-03-01T20:38:59.606Z,-0.52
2023-03-01T20:44:01.199Z,-0.54
2023-03-01T20:49:03.820Z,-0.60
2023-03-01T20:54:05.513Z,-0.71
2023-03-01T20:59:09.649Z,-0.86
2023-03-01T21:04:11.311Z,-1.06
2023-03-01T21:09:12.847Z,-1.07
2023-03-01T21:14:14.397Z,-1.14
2023-03-01T21:19:16.022Z,-1.21
2023-03-01T21:24:17.567Z,-1.29
2023-03-01T21:29:19.128Z,-1.34
2023-03-01T21:34:20.658Z,-1.45
2023-03-01T21:39:22.394Z,-1.43
2023-03-01T21:44:26.504Z,-1.46
2023-03-01T21:49:28.122Z,-1.51
2023-03-01T21:54:29.619Z,-1.57
2023-03-01T21:59:31.182Z,-1.66
2023-03-01T22:04:32.872Z,-1.73
2023-03-01T22:09:36.216Z,-1.73
2023-03-01T22:14:37.784Z,-1.75
2023-03-01T22:19:39.309Z,-1.81
2023-03-01T22:24:40.879Z,-1.87
2023-03-01T22:29:42.413Z,-1.95
2023-03-01T22:34:43.920Z,-1.97
2023-03-01T22:39:45.450Z,-2.05
2023-03-01T22:44:47.089Z,-2.10
2023-03-01T22:49:48.629Z,-2.15
2023-03-01T22:54:54.296Z,-2.19
2023-03-01T22:59:55.798Z,-2.20
2023-03-01T23:04:57.321Z,-2.22
2023-03-01T23:10:02.215Z,-2.26
2023-03-01T23:15:05.041Z,-2.27
2023-03-01T23:20:10.288Z,-2.23
2023-03-01T23:25:15.027Z,-2.16
2023-03-01T23:30:16.996Z,-2.18
2023-03-01T23:35:18.799Z,-2.18
2023-03-01T23:40:20.611Z,-2.11
2023-03-01T23:45:22.108Z,-2.09
2023-03-01T23:50:25.007Z,-2.00
2023-03-01T23:55:27.855Z,-1.96
